createdAt,value
2022-10-08T00:00:11.360Z,9.49
2022-10-08T00:02:28.239Z,9.49
2022-10-08T00:04:45.577Z,9.47
2022-10-08T00:07:02.427Z,9.43
2022-10-08T00:09:20.608Z,9.39
2022-10-08T00:11:37.634Z,9.36
2022-10-08T00:13:55.195Z,9.35
2022-10-08T00:16:12.196Z,9.29
2022-10-08T00:18:30.803Z,9.27
2022-10-08T00:20:47.721Z,9.23
2022-10-08T00:23:05.725Z,9.20
2022-10-08T00:25:22.947Z,9.14
2022-10-08T00:27:41.264Z,9.11
2022-10-08T00:30:03.917Z,9.08
2022-10-08T00:32:21.914Z,9.05
2022-10-08T00:34:39.181Z,9.06
2022-10-08T00:36:56.206Z,9.02
2022-10-08T00:39:13.191Z,8.99
2022-10-08T00:41:30.460Z,8.97
2022-10-08T00:43:47.707Z,8.94
2022-10-08T00:46:04.806Z,8.87
2022-10-08T00:48:22.073Z,8.84
2022-10-08T00:50:40.338Z,8.80
2022-10-08T00:52:57.352Z,8.78
2022-10-08T00:55:14.620Z,8.70
2022-10-08T00:57:32.169Z,8.70
2022-10-08T00:59:49.162Z,8.65
2022-10-08T01:02:06.426Z,8.60
2022-10-08T01:04:25.239Z,8.55
2022-10-08T01:06:42.459Z,8.48
2022-10-08T01:09:02.087Z,8.44
2022-10-08T01:11:19.069Z,8.40
2022-10-08T01:13:36.365Z,8.35
2022-10-08T01:15:53.481Z,8.26
2022-10-08T01:18:10.730Z,8.19
2022-10-08T01:20:27.706Z,8.18
2022-10-08T01:22:45.009Z,8.15
2022-10-08T01:25:03.445Z,8.10
2022-10-08T01:27:21.477Z,8.07
2022-10-08T01:29:38.461Z,8.00
2022-10-08T01:31:55.507Z,7.98
2022-10-08T01:34:15.289Z,7.91
2022-10-08T01:36:32.135Z,7.85
2022-10-08T01:38:50.055Z,7.81
2022-10-08T01:41:07.019Z,7.77
2022-10-08T01:43:24.469Z,7.77
2022-10-08T01:45:41.528Z,7.72
2022-10-08T01:48:01.590Z,7.68
2022-10-08T01:50:18.459Z,7.70
2022-10-08T01:52:35.385Z,7.65
2022-10-08T01:54:52.233Z,7.63
2022-10-08T01:57:09.158Z,7.58
2022-10-08T01:59:26.037Z,7.53
2022-10-08T02:01:43.620Z,7.52
2022-10-08T02:04:01.618Z,7.48
2022-10-08T02:06:18.885Z,7.46
2022-10-08T02:08:36.112Z,7.44
2022-10-08T02:10:53.378Z,7.45
2022-10-08T02:13:10.611Z,7.37
2022-10-08T02:15:27.798Z,7.31
2022-10-08T02:17:45.857Z,7.27
2022-10-08T02:20:03.094Z,7.27
2022-10-08T02:22:19.956Z,7.21
2022-10-08T02:24:36.816Z,7.20
2022-10-08T02:26:53.826Z,7.14
2022-10-08T02:29:10.799Z,7.08
2022-10-08T02:31:28.155Z,7.05
2022-10-08T02:33:49.564Z,7.02
2022-10-08T02:36:06.578Z,6.96
2022-10-08T02:38:23.459Z,6.93
2022-10-08T02:40:40.443Z,6.90
2022-10-08T02:42:58.680Z,6.84
2022-10-08T02:45:15.650Z,6.81
2022-10-08T02:47:32.506Z,6.78
2022-10-08T02:49:49.488Z,6.77
2022-10-08T02:52:06.521Z,6.76
2022-10-08T02:54:24.073Z,6.72
2022-10-08T02:56:43.635Z,6.69
2022-10-08T02:59:00.943Z,6.65
2022-10-08T03:01:19.317Z,6.64
2022-10-08T03:03:36.552Z,6.58
2022-10-08T03:05:55.973Z,6.54
2022-10-08T03:08:12.988Z,6.54
2022-10-08T03:10:30.954Z,6.50
2022-10-08T03:12:48.404Z,6.49
2022-10-08T03:15:14.266Z,6.46
2022-10-08T03:17:31.825Z,6.43
2022-10-08T03:19:50.598Z,6.42
2022-10-08T03:22:08.143Z,6.38
2022-10-08T03:24:25.168Z,6.32
2022-10-08T03:26:42.204Z,6.32
2022-10-08T03:28:59.112Z,6.28
2022-10-08T03:31:17.519Z,6.23
2022-10-08T03:33:34.522Z,6.21
2022-10-08T03:35:52.512Z,6.21
2022-10-08T03:38:09.796Z,6.20
2022-10-08T03:40:26.802Z,6.17
2022-10-08T03:42:43.943Z,6.17
2022-10-08T03:45:02.040Z,6.17
2022-10-08T03:47:19.294Z,6.14
2022-10-08T03:49:36.173Z,6.17
2022-10-08T03:51:53.463Z,6.10
2022-10-08T03:54:11.411Z,6.06
2022-10-08T03:56:28.363Z,6.02
2022-10-08T03:58:45.330Z,5.98
2022-10-08T04:01:02.634Z,5.98
2022-10-08T04:03:19.664Z,5.96
2022-10-08T04:05:36.671Z,5.96
2022-10-08T04:07:55.655Z,5.92
2022-10-08T04:10:12.921Z,5.91
2022-10-08T04:12:30.352Z,5.90
2022-10-08T04:14:48.616Z,5.89
2022-10-08T04:17:05.575Z,5.85
2022-10-08T04:19:22.790Z,5.83
2022-10-08T04:21:40.222Z,5.78
2022-10-08T04:23:57.183Z,5.75
2022-10-08T04:26:15.168Z,5.74
2022-10-08T04:28:37.539Z,5.67
2022-10-08T04:30:55.628Z,5.65
2022-10-08T04:33:12.704Z,5.69
2022-10-08T04:35:29.955Z,5.70
2022-10-08T04:37:47.241Z,5.68
2022-10-08T04:40:04.212Z,5.70
2022-10-08T04:42:22.433Z,5.65
2022-10-08T04:44:39.897Z,5.64
2022-10-08T04:46:57.148Z,5.61
2022-10-08T04:49:14.190Z,5.58
2022-10-08T04:51:31.095Z,5.57
2022-10-08T04:53:48.360Z,5.53
2022-10-08T04:56:05.280Z,5.52
2022-10-08T04:58:22.317Z,5.45
2022-10-08T05:00:40.340Z,5.44
2022-10-08T05:02:57.389Z,5.41
2022-10-08T05:05:16.314Z,5.39
2022-10-08T05:07:33.441Z,5.36
2022-10-08T05:09:50.477Z,5.37
2022-10-08T05:12:07.447Z,5.38
2022-10-08T05:14:24.461Z,5.42
2022-10-08T05:16:42.534Z,5.39
2022-10-08T05:18:59.775Z,5.36
2022-10-08T05:21:17.054Z,5.33
2022-10-08T05:23:33.892Z,5.31
2022-10-08T05:25:51.118Z,5.28
2022-10-08T05:28:08.061Z,5.22
2022-10-08T05:30:26.130Z,5.21
2022-10-08T05:32:43.149Z,5.17
2022-10-08T05:35:00.160Z,5.12
2022-10-08T05:37:17.230Z,5.09
2022-10-08T05:39:34.430Z,5.07
2022-10-08T05:41:52.892Z,5.04
2022-10-08T05:44:10.135Z,5.02
2022-10-08T05:46:27.277Z,5.04
2022-10-08T05:48:45.325Z,5.03
2022-10-08T05:51:02.238Z,5.00
2022-10-08T05:53:19.240Z,4.99
2022-10-08T05:55:36.272Z,4.97
2022-10-08T05:58:01.627Z,4.96
2022-10-08T06:00:18.803Z,4.95
2022-10-08T06:02:36.427Z,4.94
2022-10-08T06:04:53.571Z,4.92
2022-10-08T06:07:10.779Z,4.91
2022-10-08T06:09:29.070Z,4.89
2022-10-08T06:11:46.039Z,4.89
2022-10-08T06:14:04.000Z,4.95
2022-10-08T06:16:21.148Z,4.98
2022-10-08T06:18:38.090Z,5.00
2022-10-08T06:20:55.379Z,5.00
2022-10-08T06:23:12.276Z,5.01
2022-10-08T06:25:30.512Z,5.04
2022-10-08T06:27:47.530Z,5.06
2022-10-08T06:30:04.525Z,5.06
2022-10-08T06:32:21.357Z,5.01
2022-10-08T06:34:39.519Z,5.00
2022-10-08T06:36:56.337Z,4.98
2022-10-08T06:39:13.577Z,4.99
2022-10-08T06:41:30.577Z,5.10
2022-10-08T06:43:50.272Z,5.12
2022-10-08T06:46:08.501Z,5.10
2022-10-08T06:48:26.458Z,5.13
2022-10-08T06:50:44.355Z,5.15
2022-10-08T06:53:01.625Z,5.15
2022-10-08T06:55:18.552Z,5.18
2022-10-08T06:57:37.592Z,5.18
2022-10-08T06:59:54.898Z,5.21
2022-10-08T07:02:12.047Z,5.28
2022-10-08T07:04:29.468Z,5.34
2022-10-08T07:06:46.446Z,5.37
2022-10-08T07:09:03.485Z,5.42
2022-10-08T07:11:23.271Z,5.52
2022-10-08T07:13:41.616Z,5.64
2022-10-08T07:15:58.608Z,5.80
2022-10-08T07:18:15.834Z,5.96
2022-10-08T07:20:33.651Z,6.12
2022-10-08T07:22:50.855Z,6.23
2022-10-08T07:25:07.730Z,6.41
2022-10-08T07:27:24.696Z,6.48
2022-10-08T07:29:41.707Z,6.62
2022-10-08T07:31:58.664Z,6.80
2022-10-08T07:34:15.685Z,6.99
2022-10-08T07:36:36.725Z,7.09
2022-10-08T07:38:54.960Z,7.17
2022-10-08T07:41:12.169Z,7.24
2022-10-08T07:43:30.177Z,7.23
2022-10-08T07:45:47.179Z,7.35
2022-10-08T07:48:06.760Z,7.44
2022-10-08T07:50:23.838Z,7.56
2022-10-08T07:52:41.842Z,7.65
2022-10-08T07:54:59.056Z,7.84
2022-10-08T07:57:16.016Z,8.03
2022-10-08T07:59:35.861Z,8.28
2022-10-08T08:01:52.974Z,8.51
2022-10-08T08:04:11.210Z,8.62
2022-10-08T08:06:28.246Z,8.80
2022-10-08T08:08:45.808Z,9.05
2022-10-08T08:11:02.778Z,9.27
2022-10-08T08:13:19.794Z,9.49
2022-10-08T08:15:38.139Z,9.80
2022-10-08T08:17:55.634Z,10.01
2022-10-08T08:20:12.864Z,10.16
2022-10-08T08:22:30.138Z,10.35
2022-10-08T08:24:47.190Z,10.46
2022-10-08T08:27:04.465Z,10.41
2022-10-08T08:29:21.508Z,10.55
2022-10-08T08:31:38.533Z,10.62
2022-10-08T08:33:58.811Z,10.72
2022-10-08T08:36:16.011Z,10.91
2022-10-08T08:38:33.080Z,11.11
2022-10-08T08:40:51.103Z,11.36
2022-10-08T08:43:08.140Z,11.46
2022-10-08T08:45:45.215Z,11.67
2022-10-08T08:48:02.726Z,11.71
2022-10-08T08:50:19.960Z,11.77
2022-10-08T08:52:37.273Z,11.84
2022-10-08T08:54:55.515Z,11.86
2022-10-08T08:57:12.551Z,11.84
2022-10-08T08:59:30.542Z,11.86
2022-10-08T09:01:48.451Z,12.04
2022-10-08T09:04:05.725Z,12.20
2022-10-08T09:06:22.682Z,12.30
2022-10-08T09:08:39.720Z,12.40
2022-10-08T09:10:59.714Z,12.43
2022-10-08T09:13:16.667Z,12.52
2022-10-08T09:15:34.894Z,12.61
2022-10-08T09:17:52.177Z,12.64
2022-10-08T09:20:10.107Z,12.77
2022-10-08T09:22:28.142Z,12.79
2022-10-08T09:24:46.247Z,12.75
2022-10-08T09:27:03.563Z,12.87
2022-10-08T09:29:20.785Z,12.97
2022-10-08T09:31:38.134Z,13.10
2022-10-08T09:33:56.226Z,13.34
2022-10-08T09:36:13.155Z,13.48
2022-10-08T09:38:30.282Z,13.52
2022-10-08T09:40:48.951Z,13.58
2022-10-08T09:43:05.867Z,13.39
2022-10-08T09:45:22.930Z,13.39
2022-10-08T09:47:39.883Z,13.43
2022-10-08T09:49:56.898Z,13.39
2022-10-08T09:52:17.164Z,13.59
2022-10-08T09:54:34.497Z,13.61
2022-10-08T09:56:51.481Z,13.82
2022-10-08T09:59:08.421Z,14.10
2022-10-08T10:01:25.470Z,14.16
2022-10-08T10:03:42.554Z,14.21
2022-10-08T10:05:59.874Z,14.34
2022-10-08T10:08:16.840Z,14.38
2022-10-08T10:10:33.833Z,14.43
2022-10-08T10:12:50.914Z,14.52
2022-10-08T10:15:08.163Z,14.60
2022-10-08T10:17:25.221Z,14.64
2022-10-08T10:19:43.598Z,14.76
2022-10-08T10:22:01.682Z,14.71
2022-10-08T10:24:18.550Z,14.92
2022-10-08T10:26:35.690Z,14.87
2022-10-08T10:28:55.301Z,14.67
2022-10-08T10:31:12.863Z,14.86
2022-10-08T10:33:30.019Z,14.57
2022-10-08T10:35:47.300Z,14.56
2022-10-08T10:38:04.330Z,14.30
2022-10-08T10:40:21.600Z,14.36
2022-10-08T10:42:38.941Z,14.44
2022-10-08T10:44:56.281Z,14.54
2022-10-08T10:47:14.216Z,14.54
2022-10-08T10:49:31.246Z,14.55
2022-10-08T10:51:48.507Z,14.61
2022-10-08T10:54:05.541Z,14.63
2022-10-08T10:56:22.612Z,14.74
2022-10-08T10:58:39.547Z,14.85
2022-10-08T11:00:57.913Z,14.99
2022-10-08T11:03:14.998Z,15.06
2022-10-08T11:05:32.118Z,14.98
2022-10-08T11:07:50.122Z,14.96
2022-10-08T11:10:07.325Z,15.03
2022-10-08T11:12:25.539Z,15.19
2022-10-08T11:14:43.426Z,15.22
2022-10-08T11:17:00.361Z,15.31
2022-10-08T11:19:17.222Z,15.26
2022-10-08T11:21:34.422Z,15.31
2022-10-08T11:23:52.438Z,15.25
2022-10-08T11:26:21.759Z,15.49
2022-10-08T11:28:39.246Z,15.44
2022-10-08T11:30:56.617Z,15.64
2022-10-08T11:33:13.605Z,15.87
2022-10-08T11:35:30.489Z,16.04
2022-10-08T11:37:47.726Z,16.26
2022-10-08T11:40:04.953Z,16.45
2022-10-08T11:42:21.993Z,16.55
2022-10-08T11:44:39.072Z,16.76
2022-10-08T11:46:57.313Z,17.01
2022-10-08T11:49:14.248Z,17.24
2022-10-08T11:51:31.234Z,17.46
2022-10-08T11:53:48.270Z,17.66
2022-10-08T11:56:05.312Z,17.63
2022-10-08T11:58:22.399Z,17.42
2022-10-08T12:00:39.397Z,17.56
2022-10-08T12:02:56.777Z,17.54
2022-10-08T12:05:14.041Z,17.23
2022-10-08T12:07:31.051Z,17.31
2022-10-08T12:09:48.000Z,17.09
2022-10-08T12:12:05.003Z,17.06
2022-10-08T12:14:23.000Z,17.26
2022-10-08T12:16:40.293Z,17.51
2022-10-08T12:18:57.309Z,17.50
2022-10-08T12:21:15.603Z,17.69
2022-10-08T12:23:32.513Z,17.83
2022-10-08T12:25:49.373Z,17.74
2022-10-08T12:28:06.694Z,17.89
2022-10-08T12:30:24.735Z,17.98
2022-10-08T12:32:41.733Z,18.09
2022-10-08T12:34:58.757Z,18.29
2022-10-08T12:37:16.675Z,18.30
2022-10-08T12:39:35.067Z,18.35
2022-10-08T12:41:57.223Z,18.32
2022-10-08T12:44:15.026Z,18.29
2022-10-08T12:46:32.346Z,18.41
2022-10-08T12:48:49.203Z,18.39
2022-10-08T12:51:06.222Z,18.44
2022-10-08T12:53:23.303Z,18.30
2022-10-08T12:55:40.294Z,18.26
2022-10-08T12:57:57.205Z,18.50
2022-10-08T13:00:14.527Z,18.38
2022-10-08T13:02:31.425Z,18.43
2022-10-08T13:04:48.312Z,18.77
2022-10-08T13:07:06.615Z,18.74
2022-10-08T13:09:23.825Z,18.82
2022-10-08T13:11:40.744Z,18.80
2022-10-08T13:13:57.816Z,18.93
2022-10-08T13:16:15.841Z,19.07
2022-10-08T13:18:32.902Z,19.18
2022-10-08T13:20:50.195Z,19.06
2022-10-08T13:23:10.424Z,18.93
2022-10-08T13:25:27.489Z,19.04
2022-10-08T13:27:47.268Z,19.04
2022-10-08T13:30:04.491Z,19.03
2022-10-08T13:32:21.403Z,18.93
2022-10-08T13:34:38.678Z,18.90
2022-10-08T13:36:55.699Z,18.61
2022-10-08T13:39:12.680Z,18.77
2022-10-08T13:41:29.699Z,18.88
2022-10-08T13:43:46.993Z,18.95
2022-10-08T13:46:05.284Z,19.03
2022-10-08T13:48:22.528Z,18.93
2022-10-08T13:50:39.460Z,19.09
2022-10-08T13:52:56.432Z,19.12
2022-10-08T13:55:14.764Z,19.09
2022-10-08T13:57:31.777Z,18.95
2022-10-08T13:59:48.664Z,19.21
2022-10-08T14:02:05.812Z,19.20
2022-10-08T14:04:22.808Z,18.85
2022-10-08T14:06:39.769Z,19.08
2022-10-08T14:08:59.106Z,18.98
2022-10-08T14:11:16.606Z,18.96
2022-10-08T14:13:34.187Z,19.01
2022-10-08T14:15:51.617Z,18.51
2022-10-08T14:18:08.586Z,18.32
2022-10-08T14:20:25.555Z,18.24
2022-10-08T14:22:42.616Z,18.44
2022-10-08T14:25:00.481Z,18.35
2022-10-08T14:27:17.472Z,18.53
2022-10-08T14:29:35.455Z,18.72
2022-10-08T14:31:52.797Z,18.82
2022-10-08T14:34:10.277Z,18.84
2022-10-08T14:36:27.254Z,18.76
2022-10-08T14:38:45.807Z,18.76
2022-10-08T14:41:03.085Z,18.81
2022-10-08T14:43:20.353Z,18.79
2022-10-08T14:45:38.351Z,18.92
2022-10-08T14:47:55.629Z,18.87
2022-10-08T14:50:12.555Z,18.82
2022-10-08T14:52:29.481Z,18.68
2022-10-08T14:54:46.413Z,18.73
2022-10-08T14:57:03.307Z,18.58
2022-10-08T14:59:20.177Z,18.61
2022-10-08T15:01:37.145Z,18.26
2022-10-08T15:03:54.085Z,18.53
2022-10-08T15:06:10.955Z,18.67
2022-10-08T15:08:27.814Z,18.68
2022-10-08T15:10:44.677Z,18.96
2022-10-08T15:13:01.504Z,18.99
2022-10-08T15:15:18.372Z,19.23
2022-10-08T15:17:35.250Z,19.45
2022-10-08T15:19:52.255Z,19.88
2022-10-08T15:22:09.103Z,20.24
2022-10-08T15:24:25.990Z,20.31
2022-10-08T15:26:42.872Z,20.61
2022-10-08T15:28:59.747Z,20.88
2022-10-08T15:31:16.685Z,21.42
2022-10-08T15:33:33.732Z,21.40
2022-10-08T15:35:50.759Z,21.59
2022-10-08T15:38:07.616Z,21.91
2022-10-08T15:40:24.507Z,22.24
2022-10-08T15:42:41.588Z,21.19
2022-10-08T15:44:58.545Z,20.08
2022-10-08T15:47:16.378Z,18.98
2022-10-08T15:49:33.277Z,18.09
2022-10-08T15:51:50.146Z,17.52
2022-10-08T15:54:07.025Z,16.92
2022-10-08T15:56:23.871Z,16.17
2022-10-08T15:58:55.758Z,15.70
2022-10-08T16:01:12.834Z,15.31
2022-10-08T16:03:29.707Z,15.02
2022-10-08T16:05:46.578Z,14.84
2022-10-08T16:08:03.493Z,14.66
2022-10-08T16:10:20.321Z,14.40
2022-10-08T16:12:37.194Z,14.22
2022-10-08T16:14:54.035Z,14.03
2022-10-08T16:17:10.988Z,13.99
2022-10-08T16:19:27.960Z,13.86
2022-10-08T16:21:44.790Z,13.72
2022-10-08T16:24:01.680Z,13.57
2022-10-08T16:26:18.589Z,13.49
2022-10-08T16:28:35.704Z,13.37
2022-10-08T16:30:52.633Z,13.24
2022-10-08T16:33:09.556Z,13.11
2022-10-08T16:35:26.488Z,12.99
2022-10-08T16:37:43.625Z,12.90
2022-10-08T16:40:00.615Z,12.84
2022-10-08T16:42:17.565Z,12.70
2022-10-08T16:44:34.468Z,12.61
2022-10-08T16:46:51.391Z,12.55
2022-10-08T16:49:08.326Z,12.45
2022-10-08T16:51:25.206Z,12.39
2022-10-08T16:53:42.098Z,12.33
2022-10-08T16:55:59.191Z,12.26
2022-10-08T16:58:16.023Z,12.18
2022-10-08T17:00:32.903Z,12.08
2022-10-08T17:02:50.212Z,11.99
2022-10-08T17:05:07.477Z,11.92
2022-10-08T17:07:24.561Z,11.83
2022-10-08T17:09:41.430Z,11.76
2022-10-08T17:11:58.310Z,11.70
2022-10-08T17:14:15.161Z,11.63
2022-10-08T17:16:32.330Z,11.55
2022-10-08T17:18:49.221Z,11.51
2022-10-08T17:21:06.148Z,11.42
2022-10-08T17:23:23.025Z,11.37
2022-10-08T17:25:39.922Z,11.30
2022-10-08T17:27:56.781Z,11.27
2022-10-08T17:30:13.673Z,11.18
2022-10-08T17:32:30.583Z,11.13
2022-10-08T17:34:47.514Z,11.04
2022-10-08T17:37:04.388Z,10.98
2022-10-08T17:39:21.276Z,10.91
2022-10-08T17:41:38.084Z,10.83
2022-10-08T17:43:54.973Z,10.78
2022-10-08T17:46:11.924Z,10.71
2022-10-08T17:48:28.826Z,10.65
2022-10-08T17:50:45.764Z,10.58
2022-10-08T17:53:02.644Z,10.50
2022-10-08T17:55:19.661Z,10.43
2022-10-08T17:57:36.603Z,10.36
2022-10-08T17:59:53.508Z,10.34
2022-10-08T18:02:10.489Z,10.28
2022-10-08T18:04:27.441Z,10.21
2022-10-08T18:06:44.339Z,10.14
2022-10-08T18:09:01.204Z,10.10
2022-10-08T18:11:18.100Z,10.05
2022-10-08T18:13:35.047Z,9.98
2022-10-08T18:15:51.909Z,9.94
2022-10-08T18:18:09.307Z,9.92
2022-10-08T18:20:26.173Z,9.88
2022-10-08T18:22:43.268Z,9.83
2022-10-08T18:25:00.244Z,9.75
2022-10-08T18:27:17.169Z,9.71
2022-10-08T18:29:34.093Z,9.65
2022-10-08T18:31:51.003Z,9.62
2022-10-08T18:34:07.864Z,9.53
2022-10-08T18:36:24.754Z,9.44
2022-10-08T18:38:41.625Z,9.37
2022-10-08T18:40:58.777Z,9.38
2022-10-08T18:43:15.634Z,9.34
2022-10-08T18:45:32.498Z,9.29
2022-10-08T18:47:49.416Z,9.24
2022-10-08T18:50:06.285Z,9.16
2022-10-08T18:52:23.183Z,9.09
2022-10-08T18:54:40.038Z,9.01
2022-10-08T18:56:57.107Z,8.96
2022-10-08T18:59:14.036Z,8.96
2022-10-08T19:01:31.125Z,8.90
2022-10-08T19:03:48.261Z,8.86
2022-10-08T19:06:05.145Z,8.79
2022-10-08T19:08:22.069Z,8.75
2022-10-08T19:10:39.023Z,8.72
2022-10-08T19:12:55.886Z,8.67
2022-10-08T19:15:12.790Z,8.64
2022-10-08T19:17:29.613Z,8.58
2022-10-08T19:19:46.529Z,8.53
2022-10-08T19:22:03.368Z,8.49
2022-10-08T19:24:20.267Z,8.41
2022-10-08T19:26:37.132Z,8.42
2022-10-08T19:28:54.037Z,8.43
2022-10-08T19:31:10.869Z,8.43
2022-10-08T19:33:27.787Z,8.40
2022-10-08T19:35:44.725Z,8.34
2022-10-08T19:38:01.569Z,8.30
2022-10-08T19:40:18.618Z,8.28
2022-10-08T19:42:35.501Z,8.25
2022-10-08T19:44:52.386Z,8.20
2022-10-08T19:47:09.212Z,8.14
2022-10-08T19:49:26.041Z,8.07
2022-10-08T19:51:42.907Z,8.00
2022-10-08T19:53:59.791Z,7.94
2022-10-08T19:56:16.689Z,7.91
2022-10-08T19:58:33.517Z,7.89
2022-10-08T20:00:50.368Z,7.86
2022-10-08T20:03:07.451Z,7.82
2022-10-08T20:05:24.347Z,7.79
2022-10-08T20:07:41.211Z,7.76
2022-10-08T20:09:58.113Z,7.72
2022-10-08T20:12:14.981Z,7.71
2022-10-08T20:14:31.886Z,7.66
2022-10-08T20:16:48.731Z,7.63
2022-10-08T20:19:05.633Z,7.59
2022-10-08T20:21:22.507Z,7.61
2022-10-08T20:23:40.443Z,7.54
2022-10-08T20:25:57.322Z,7.47
2022-10-08T20:28:14.243Z,7.44
2022-10-08T20:30:31.317Z,7.43
2022-10-08T20:32:48.386Z,7.39
2022-10-08T20:35:05.463Z,7.35
2022-10-08T20:37:22.323Z,7.36
2022-10-08T20:39:39.240Z,7.29
2022-10-08T20:41:56.086Z,7.25
2022-10-08T20:44:13.013Z,7.24
2022-10-08T20:46:29.899Z,7.21
2022-10-08T20:48:46.830Z,7.19
2022-10-08T20:51:03.669Z,7.15
2022-10-08T20:53:20.522Z,7.13
2022-10-08T20:55:37.399Z,7.11
2022-10-08T20:57:54.198Z,7.07
2022-10-08T21:00:11.116Z,7.04
2022-10-08T21:02:28.023Z,7.00
2022-10-08T21:04:45.022Z,7.01
2022-10-08T21:07:01.904Z,6.97
2022-10-08T21:09:18.881Z,6.90
2022-10-08T21:11:35.766Z,6.85
2022-10-08T21:13:52.882Z,6.90
2022-10-08T21:16:09.915Z,6.83
2022-10-08T21:18:26.892Z,6.82
2022-10-08T21:20:43.983Z,6.70
2022-10-08T21:23:00.956Z,6.65
2022-10-08T21:25:20.538Z,6.63
2022-10-08T21:27:37.550Z,6.57
2022-10-08T21:29:54.448Z,6.53
2022-10-08T21:32:14.130Z,6.55
2022-10-08T21:34:31.036Z,6.57
2022-10-08T21:36:47.961Z,6.54
2022-10-08T21:39:05.111Z,6.54
2022-10-08T21:41:24.329Z,6.47
2022-10-08T21:43:41.272Z,6.44
2022-10-08T21:45:58.534Z,6.46
2022-10-08T21:48:15.610Z,6.41
2022-10-08T21:50:35.968Z,6.33
2022-10-08T21:52:53.151Z,6.31
2022-10-08T21:55:10.202Z,6.32
2022-10-08T21:57:27.164Z,6.31
2022-10-08T21:59:44.190Z,6.27
2022-10-08T22:02:01.152Z,6.21
2022-10-08T22:04:18.255Z,6.20
2022-10-08T22:06:35.235Z,6.23
2022-10-08T22:08:52.155Z,6.20
2022-10-08T22:11:09.019Z,6.15
2022-10-08T22:13:25.893Z,6.13
2022-10-08T22:15:42.800Z,6.14
2022-10-08T22:17:59.714Z,6.14
2022-10-08T22:20:16.645Z,6.13
2022-10-08T22:22:33.561Z,6.05
2022-10-08T22:24:50.482Z,5.99
2022-10-08T22:27:07.410Z,5.98
2022-10-08T22:29:25.423Z,5.90
2022-10-08T22:31:42.422Z,5.86
2022-10-08T22:33:59.420Z,5.79
2022-10-08T22:36:16.321Z,5.80
2022-10-08T22:38:33.217Z,5.79
2022-10-08T22:40:50.126Z,5.77
2022-10-08T22:43:07.101Z,5.76
2022-10-08T22:45:24.111Z,5.74
2022-10-08T22:47:41.353Z,5.68
2022-10-08T22:49:58.247Z,5.66
2022-10-08T22:52:15.213Z,5.65
2022-10-08T22:54:32.077Z,5.63
2022-10-08T22:56:49.084Z,5.62
2022-10-08T22:59:05.969Z,5.63
2022-10-08T23:01:22.878Z,5.54
2022-10-08T23:03:39.922Z,5.48
2022-10-08T23:05:56.851Z,5.46
2022-10-08T23:08:13.769Z,5.36
2022-10-08T23:10:30.682Z,5.39
2022-10-08T23:12:47.824Z,5.35
2022-10-08T23:15:04.998Z,5.30
2022-10-08T23:17:21.995Z,5.29
2022-10-08T23:19:38.947Z,5.34
2022-10-08T23:21:55.907Z,5.27
2022-10-08T23:24:12.856Z,5.20
2022-10-08T23:26:29.798Z,5.15
2022-10-08T23:28:46.714Z,5.10
2022-10-08T23:31:03.617Z,5.10
2022-10-08T23:33:20.538Z,5.11
2022-10-08T23:35:37.627Z,5.11
2022-10-08T23:37:54.494Z,5.07
2022-10-08T23:40:11.413Z,5.05
2022-10-08T23:42:28.281Z,4.99
2022-10-08T23:44:45.229Z,5.00
2022-10-08T23:47:02.134Z,4.96
2022-10-08T23:49:19.063Z,4.91
2022-10-08T23:51:35.925Z,4.90
2022-10-08T23:53:52.802Z,4.88
2022-10-08T23:56:09.710Z,4.83
2022-10-08T23:58:26.625Z,4.80
